TPC5711 KMEM-KJFK
Flight info
| Callsign | TPC5711 |
|---|---|
| Flight time | N/A |
| Altitude | 39000 |
| Route | GOETZ7 DIYAB DCT HITMN Q34 MAULS DCT QUART DCT HURTS DCT SAWED Q108 SIE CAMRN5 |
| Aircraft | E190/M-SDE3GILORVW/S |
Departure
| Time | 2026-05-04 01:25 |
|---|---|
| Airport | Memphis International Airport (KMEM) |
Arrival
| Time | N/A |
|---|---|
| Airport | John F. Kennedy International Airport (KJFK) |
| Time | Latitude | Longitude | Altitude | Speed | Heading |
|---|---|---|---|---|---|
| 2026-05-04 00:55 | 35.04079 | -89.98288 | 305 ft | 0 kts | 295° |
| 2026-05-04 01:05 | 35.04076 | -89.98281 | 307 ft | 4 kts | 291° |
| 2026-05-04 01:05 | 35.04072 | -89.98252 | 306 ft | 4 kts | 250° |
| 2026-05-04 01:06 | 35.04083 | -89.98227 | 307 ft | 1 kts | 231° |
| 2026-05-04 01:06 | 35.04085 | -89.98223 | 307 ft | 0 kts | 231° |
| 2026-05-04 01:13 | 35.04083 | -89.98226 | 307 ft | 0 kts | 231° |
| 2026-05-04 01:13 | 35.04069 | -89.98238 | 307 ft | 5 kts | 206° |
| 2026-05-04 01:13 | 35.04021 | -89.98258 | 305 ft | 9 kts | 194° |
| 2026-05-04 01:13 | 35.03949 | -89.98270 | 305 ft | 12 kts | 184° |
| 2026-05-04 01:14 | 35.03895 | -89.98292 | 305 ft | 7 kts | 227° |
| 2026-05-04 01:14 | 35.03883 | -89.98358 | 306 ft | 10 kts | 268° |
| 2026-05-04 01:14 | 35.03880 | -89.98452 | 305 ft | 12 kts | 265° |
| 2026-05-04 01:14 | 35.03813 | -89.98491 | 306 ft | 12 kts | 183° |
| 2026-05-04 01:15 | 35.03731 | -89.98488 | 307 ft | 12 kts | 176° |
| 2026-05-04 01:15 | 35.03649 | -89.98487 | 309 ft | 11 kts | 183° |
| 2026-05-04 01:15 | 35.03575 | -89.98482 | 310 ft | 11 kts | 176° |
| 2026-05-04 01:15 | 35.03499 | -89.98480 | 314 ft | 11 kts | 180° |
| 2026-05-04 01:16 | 35.03419 | -89.98478 | 314 ft | 12 kts | 178° |
| 2026-05-04 01:16 | 35.03325 | -89.98475 | 313 ft | 14 kts | 181° |
| 2026-05-04 01:16 | 35.03222 | -89.98472 | 314 ft | 15 kts | 178° |
| 2026-05-04 01:16 | 35.03117 | -89.98482 | 315 ft | 16 kts | 199° |
| 2026-05-04 01:17 | 35.03024 | -89.98564 | 314 ft | 18 kts | 197° |
| 2026-05-04 01:17 | 35.02897 | -89.98567 | 314 ft | 19 kts | 179° |
| 2026-05-04 01:17 | 35.02805 | -89.98565 | 314 ft | 0 kts | 178° |
| 2026-05-04 01:18 | 35.02789 | -89.98565 | 314 ft | 7 kts | 178° |
| 2026-05-04 01:18 | 35.02710 | -89.98563 | 314 ft | 15 kts | 179° |
| 2026-05-04 01:18 | 35.02662 | -89.98495 | 317 ft | 12 kts | 67° |
| 2026-05-04 01:19 | 35.02765 | -89.98466 | 316 ft | 20 kts | 359° |
| 2026-05-04 01:19 | 35.02922 | -89.98468 | 313 ft | 25 kts | 358° |
| 2026-05-04 01:19 | 35.03106 | -89.98473 | 315 ft | 28 kts | 0° |
| 2026-05-04 01:19 | 35.03304 | -89.98476 | 313 ft | 29 kts | 359° |
| 2026-05-04 01:20 | 35.03510 | -89.98480 | 314 ft | 30 kts | 360° |
| 2026-05-04 01:20 | 35.03716 | -89.98489 | 308 ft | 29 kts | 358° |
| 2026-05-04 01:20 | 35.03924 | -89.98491 | 303 ft | 31 kts | 359° |
| 2026-05-04 01:20 | 35.04139 | -89.98496 | 301 ft | 29 kts | 355° |
| 2026-05-04 01:21 | 35.04343 | -89.98501 | 298 ft | 30 kts | 359° |
| 2026-05-04 01:21 | 35.04551 | -89.98507 | 297 ft | 29 kts | 359° |
| 2026-05-04 01:21 | 35.04709 | -89.98511 | 298 ft | 19 kts | 359° |
| 2026-05-04 01:21 | 35.04815 | -89.98512 | 298 ft | 15 kts | 359° |
| 2026-05-04 01:22 | 35.04924 | -89.98515 | 297 ft | 9 kts | 344° |
| 2026-05-04 01:22 | 35.04936 | -89.98569 | 296 ft | 8 kts | 271° |
| 2026-05-04 01:22 | 35.04934 | -89.98620 | 297 ft | 0 kts | 267° |
| 2026-05-04 01:23 | 35.04934 | -89.98627 | 297 ft | 3 kts | 268° |
| 2026-05-04 01:23 | 35.04934 | -89.98662 | 297 ft | 5 kts | 270° |
| 2026-05-04 01:23 | 35.04928 | -89.98720 | 299 ft | 8 kts | 240° |
| 2026-05-04 01:23 | 35.04881 | -89.98740 | 301 ft | 8 kts | 176° |
| 2026-05-04 01:24 | 35.04876 | -89.98740 | 300 ft | 0 kts | 176° |
| 2026-05-04 01:24 | 35.04649 | -89.98736 | 298 ft | 71 kts | 179° |
| 2026-05-04 01:25 | 35.03910 | -89.98719 | 303 ft | 140 kts | 179° |
| 2026-05-04 01:25 | 35.02807 | -89.98695 | 627 ft | 175 kts | 179° |
| 2026-05-04 01:25 | 35.01523 | -89.98674 | 1462 ft | 189 kts | 181° |
| 2026-05-04 01:25 | 35.00179 | -89.98650 | 2265 ft | 202 kts | 181° |
| 2026-05-04 01:26 | 34.98714 | -89.98443 | 2912 ft | 227 kts | 166° |
| 2026-05-04 01:26 | 34.97197 | -89.97606 | 3625 ft | 252 kts | 156° |
| 2026-05-04 01:26 | 34.95586 | -89.96538 | 4295 ft | 274 kts | 154° |
| 2026-05-04 01:26 | 34.93931 | -89.95230 | 5036 ft | 295 kts | 138° |
| 2026-05-04 01:27 | 34.92841 | -89.93089 | 5968 ft | 305 kts | 105° |
| 2026-05-04 01:27 | 34.92538 | -89.90535 | 7028 ft | 305 kts | 92° |
| 2026-05-04 01:27 | 34.92496 | -89.87964 | 8153 ft | 302 kts | 88° |
| 2026-05-04 01:27 | 34.92517 | -89.85429 | 9353 ft | 296 kts | 84° |
| 2026-05-04 01:28 | 34.93048 | -89.83045 | 10388 ft | 292 kts | 60° |
| 2026-05-04 01:28 | 34.94064 | -89.80900 | 11313 ft | 294 kts | 57° |
| 2026-05-04 01:28 | 34.95107 | -89.78731 | 12181 ft | 299 kts | 57° |
| 2026-05-04 01:28 | 34.96161 | -89.76522 | 13061 ft | 306 kts | 57° |
| 2026-05-04 01:29 | 34.97275 | -89.74194 | 13493 ft | 329 kts | 57° |
| 2026-05-04 01:29 | 34.98465 | -89.71693 | 13932 ft | 351 kts | 57° |
| 2026-05-04 01:29 | 34.99709 | -89.69052 | 14524 ft | 365 kts | 57° |
| 2026-05-04 01:29 | 35.00979 | -89.66351 | 15433 ft | 368 kts | 57° |
| 2026-05-04 01:30 | 35.02219 | -89.63703 | 16707 ft | 362 kts | 56° |
| 2026-05-04 01:30 | 35.03494 | -89.60992 | 17240 ft | 375 kts | 56° |
| 2026-05-04 01:30 | 35.04805 | -89.58204 | 17933 ft | 382 kts | 56° |
| 2026-05-04 01:30 | 35.06116 | -89.55405 | 18654 ft | 387 kts | 56° |
| 2026-05-04 01:31 | 35.07461 | -89.52532 | 19372 ft | 392 kts | 56° |
| 2026-05-04 01:31 | 35.08821 | -89.49619 | 20088 ft | 397 kts | 56° |
| 2026-05-04 01:31 | 35.10201 | -89.46670 | 20770 ft | 402 kts | 56° |
| 2026-05-04 01:31 | 35.11596 | -89.43682 | 21398 ft | 407 kts | 56° |
| 2026-05-04 01:32 | 35.13007 | -89.40658 | 21999 ft | 412 kts | 56° |
| 2026-05-04 01:32 | 35.14433 | -89.37600 | 22584 ft | 416 kts | 56° |
| 2026-05-04 01:32 | 35.15870 | -89.34515 | 23146 ft | 421 kts | 56° |
| 2026-05-04 01:32 | 35.17324 | -89.31389 | 23711 ft | 425 kts | 56° |
| 2026-05-04 01:33 | 35.18790 | -89.28236 | 24215 ft | 428 kts | 56° |
| 2026-05-04 01:33 | 35.20267 | -89.25055 | 24727 ft | 432 kts | 56° |
| 2026-05-04 01:33 | 35.21745 | -89.21838 | 25234 ft | 437 kts | 58° |
| 2026-05-04 01:33 | 35.22865 | -89.18335 | 25723 ft | 447 kts | 69° |
| 2026-05-04 01:34 | 35.23732 | -89.14663 | 26184 ft | 451 kts | 69° |
| 2026-05-04 01:34 | 35.24626 | -89.11026 | 26626 ft | 453 kts | 65° |
| 2026-05-04 01:34 | 35.25815 | -89.07452 | 27042 ft | 454 kts | 60° |
| 2026-05-04 01:34 | 35.27150 | -89.03944 | 27486 ft | 456 kts | 59° |
| 2026-05-04 01:35 | 35.28513 | -89.00427 | 27902 ft | 459 kts | 59° |
| 2026-05-04 01:35 | 35.29879 | -88.96879 | 28297 ft | 462 kts | 59° |
| 2026-05-04 01:35 | 35.31246 | -88.93302 | 28679 ft | 465 kts | 59° |
| 2026-05-04 01:35 | 35.32614 | -88.89707 | 29052 ft | 468 kts | 59° |
| 2026-05-04 01:36 | 35.33990 | -88.86084 | 29581 ft | 467 kts | 59° |
| 2026-05-04 01:36 | 35.35354 | -88.82478 | 30170 ft | 466 kts | 59° |
| 2026-05-04 01:36 | 35.36712 | -88.78890 | 30605 ft | 465 kts | 59° |
| 2026-05-04 01:36 | 35.38069 | -88.75299 | 31028 ft | 464 kts | 59° |
| 2026-05-04 01:37 | 35.39424 | -88.71716 | 31464 ft | 463 kts | 59° |
| 2026-05-04 01:37 | 35.40774 | -88.68137 | 31874 ft | 462 kts | 58° |
| 2026-05-04 01:37 | 35.42121 | -88.64563 | 32267 ft | 461 kts | 58° |
| 2026-05-04 01:37 | 35.43465 | -88.60996 | 32647 ft | 461 kts | 58° |
| 2026-05-04 01:38 | 35.44807 | -88.57432 | 32992 ft | 460 kts | 58° |
| 2026-05-04 01:38 | 35.46147 | -88.53868 | 33340 ft | 460 kts | 58° |
| 2026-05-04 01:38 | 35.47465 | -88.50357 | 33690 ft | 459 kts | 58° |
| 2026-05-04 01:38 | 35.48797 | -88.46803 | 34047 ft | 458 kts | 58° |
| 2026-05-04 01:39 | 35.50126 | -88.43258 | 34359 ft | 458 kts | 58° |
| 2026-05-04 01:39 | 35.51454 | -88.39712 | 34600 ft | 459 kts | 58° |
| 2026-05-04 01:39 | 35.52784 | -88.36154 | 34865 ft | 459 kts | 58° |
| 2026-05-04 01:39 | 35.54113 | -88.32595 | 35147 ft | 458 kts | 58° |
| 2026-05-04 01:40 | 35.55440 | -88.29037 | 35419 ft | 458 kts | 58° |
| 2026-05-04 01:40 | 35.56766 | -88.25480 | 35694 ft | 458 kts | 58° |
| 2026-05-04 01:40 | 35.58091 | -88.21922 | 35963 ft | 458 kts | 58° |
| 2026-05-04 01:40 | 35.59415 | -88.18362 | 36211 ft | 458 kts | 58° |
| 2026-05-04 01:41 | 35.60739 | -88.14795 | 36476 ft | 458 kts | 58° |
| 2026-05-04 01:41 | 35.62058 | -88.11240 | 36732 ft | 458 kts | 58° |
| 2026-05-04 01:41 | 35.63382 | -88.07669 | 36992 ft | 458 kts | 58° |
| 2026-05-04 01:41 | 35.64687 | -88.04146 | 37193 ft | 459 kts | 59° |
| 2026-05-04 01:42 | 35.66023 | -88.00532 | 37439 ft | 459 kts | 59° |
| 2026-05-04 01:42 | 35.67326 | -87.97002 | 37666 ft | 459 kts | 59° |
| 2026-05-04 01:42 | 35.68645 | -87.93426 | 37908 ft | 459 kts | 59° |
| 2026-05-04 01:42 | 35.69963 | -87.89850 | 38143 ft | 459 kts | 59° |
| 2026-05-04 01:43 | 35.71282 | -87.86273 | 38349 ft | 459 kts | 59° |
| 2026-05-04 01:43 | 35.72598 | -87.82691 | 38564 ft | 459 kts | 59° |
| 2026-05-04 01:43 | 35.73913 | -87.79108 | 38746 ft | 460 kts | 59° |
| 2026-05-04 01:43 | 35.75232 | -87.75515 | 38861 ft | 461 kts | 59° |
| 2026-05-04 01:44 | 35.76548 | -87.71928 | 39038 ft | 459 kts | 59° |
| 2026-05-04 01:44 | 35.77853 | -87.68356 | 39250 ft | 458 kts | 60° |
| 2026-05-04 01:44 | 35.79170 | -87.64757 | 39172 ft | 465 kts | 60° |
| 2026-05-04 01:45 | 35.81858 | -87.57406 | 39102 ft | 475 kts | 60° |
| 2026-05-04 01:45 | 35.85922 | -87.46231 | 39088 ft | 479 kts | 60° |
| 2026-05-04 01:46 | 35.88642 | -87.38724 | 39083 ft | 479 kts | 60° |
| 2026-05-04 01:46 | 35.91355 | -87.31224 | 39082 ft | 479 kts | 60° |
| 2026-05-04 01:47 | 35.94059 | -87.23732 | 39071 ft | 478 kts | 60° |
| 2026-05-04 01:47 | 35.96759 | -87.16238 | 39080 ft | 477 kts | 60° |
| 2026-05-04 01:48 | 35.99443 | -87.08767 | 39068 ft | 476 kts | 60° |
| 2026-05-04 01:48 | 36.02102 | -87.01341 | 39059 ft | 476 kts | 60° |
| 2026-05-04 01:49 | 36.04774 | -86.93871 | 39058 ft | 475 kts | 61° |
| 2026-05-04 01:49 | 36.07441 | -86.86400 | 39047 ft | 475 kts | 61° |
| 2026-05-04 01:50 | 36.10099 | -86.78930 | 39076 ft | 474 kts | 61° |
| 2026-05-04 01:50 | 36.12749 | -86.71471 | 39073 ft | 474 kts | 61° |
| 2026-05-04 01:51 | 36.15336 | -86.63947 | 39082 ft | 478 kts | 63° |
| 2026-05-04 01:51 | 36.17761 | -86.56290 | 39079 ft | 484 kts | 64° |
| 2026-05-04 01:52 | 36.20246 | -86.48531 | 39076 ft | 487 kts | 63° |
| 2026-05-04 01:52 | 36.22755 | -86.40733 | 39090 ft | 486 kts | 63° |
| 2026-05-04 01:53 | 36.25250 | -86.32961 | 39090 ft | 486 kts | 63° |
| 2026-05-04 01:53 | 36.27739 | -86.25188 | 39090 ft | 485 kts | 63° |
| 2026-05-04 01:54 | 36.30202 | -86.17476 | 39090 ft | 484 kts | 64° |
| 2026-05-04 01:54 | 36.32673 | -86.09717 | 39088 ft | 483 kts | 64° |
| 2026-05-04 01:55 | 36.35138 | -86.01961 | 39085 ft | 483 kts | 64° |
| 2026-05-04 01:55 | 36.37178 | -85.95522 | 39085 ft | 483 kts | 64° |
| 2026-05-04 01:56 | 36.39629 | -85.87770 | 39081 ft | 482 kts | 64° |
| 2026-05-04 01:56 | 36.42072 | -85.80024 | 39080 ft | 481 kts | 64° |
| 2026-05-04 01:57 | 36.44522 | -85.72237 | 39077 ft | 488 kts | 64° |
| 2026-05-04 01:57 | 36.46999 | -85.64338 | 39076 ft | 492 kts | 64° |
| 2026-05-04 01:58 | 36.49472 | -85.56418 | 39078 ft | 491 kts | 64° |
| 2026-05-04 01:58 | 36.51940 | -85.48509 | 39079 ft | 491 kts | 64° |
| 2026-05-04 01:59 | 36.54399 | -85.40609 | 39085 ft | 489 kts | 65° |
| 2026-05-04 01:59 | 36.56847 | -85.32716 | 39081 ft | 489 kts | 65° |
| 2026-05-04 02:00 | 36.59285 | -85.24826 | 39090 ft | 488 kts | 65° |
| 2026-05-04 02:00 | 36.61702 | -85.16995 | 39098 ft | 488 kts | 65° |
| 2026-05-04 02:01 | 36.64138 | -85.09118 | 39092 ft | 487 kts | 65° |
| 2026-05-04 02:01 | 36.66574 | -85.01236 | 39093 ft | 489 kts | 65° |
| 2026-05-04 02:02 | 36.69007 | -84.93334 | 39099 ft | 488 kts | 65° |
| 2026-05-04 02:02 | 36.71435 | -84.85425 | 39095 ft | 489 kts | 65° |
| 2026-05-04 02:03 | 36.73860 | -84.77511 | 39094 ft | 489 kts | 65° |
| 2026-05-04 02:03 | 36.76278 | -84.69589 | 39096 ft | 489 kts | 65° |
| 2026-05-04 02:04 | 36.78693 | -84.61657 | 39088 ft | 489 kts | 65° |
| 2026-05-04 02:04 | 36.81102 | -84.53721 | 39078 ft | 489 kts | 66° |
| 2026-05-04 02:05 | 36.83499 | -84.45772 | 39076 ft | 489 kts | 66° |
| 2026-05-04 02:05 | 36.85890 | -84.37825 | 39076 ft | 490 kts | 66° |
| 2026-05-04 02:06 | 36.88301 | -84.29793 | 39103 ft | 497 kts | 66° |
| 2026-05-04 02:06 | 36.90735 | -84.21652 | 39077 ft | 501 kts | 66° |
| 2026-05-04 02:07 | 36.93169 | -84.13492 | 39080 ft | 501 kts | 66° |
| 2026-05-04 02:07 | 36.95594 | -84.05335 | 39079 ft | 500 kts | 66° |
| 2026-05-04 02:08 | 36.98012 | -83.97178 | 39084 ft | 500 kts | 66° |
| 2026-05-04 02:08 | 37.00424 | -83.89019 | 39077 ft | 500 kts | 67° |
| 2026-05-04 02:09 | 37.02826 | -83.80866 | 39074 ft | 500 kts | 67° |
| 2026-05-04 02:09 | 37.05228 | -83.72692 | 39069 ft | 500 kts | 67° |
| 2026-05-04 02:10 | 37.07621 | -83.64523 | 39044 ft | 502 kts | 67° |
| 2026-05-04 02:10 | 37.10018 | -83.56324 | 39059 ft | 502 kts | 67° |
| 2026-05-04 02:11 | 37.12411 | -83.48112 | 39062 ft | 502 kts | 67° |
| 2026-05-04 02:11 | 37.14802 | -83.39878 | 39070 ft | 503 kts | 67° |
| 2026-05-04 02:12 | 37.17174 | -83.31683 | 39057 ft | 504 kts | 67° |
| 2026-05-04 02:12 | 37.19557 | -83.23421 | 39067 ft | 504 kts | 67° |
| 2026-05-04 02:13 | 37.21938 | -83.15149 | 39065 ft | 504 kts | 68° |
| 2026-05-04 02:13 | 37.24313 | -83.06874 | 39066 ft | 505 kts | 68° |
| 2026-05-04 02:14 | 37.26684 | -82.98575 | 39067 ft | 505 kts | 68° |
| 2026-05-04 02:14 | 37.29057 | -82.90256 | 39067 ft | 506 kts | 68° |
| 2026-05-04 02:15 | 37.31424 | -82.81914 | 39052 ft | 507 kts | 68° |
| 2026-05-04 02:15 | 37.33793 | -82.73560 | 39060 ft | 508 kts | 68° |
| 2026-05-04 02:16 | 37.36155 | -82.65199 | 39060 ft | 508 kts | 68° |
| 2026-05-04 02:16 | 37.38513 | -82.56821 | 39067 ft | 509 kts | 68° |
| 2026-05-04 02:17 | 37.40868 | -82.48434 | 39051 ft | 508 kts | 68° |
| 2026-05-04 02:17 | 37.43216 | -82.40041 | 39048 ft | 508 kts | 68° |
| 2026-05-04 02:18 | 37.45559 | -82.31637 | 39043 ft | 509 kts | 68° |
| 2026-05-04 02:18 | 37.47887 | -82.23261 | 39045 ft | 511 kts | 68° |
| 2026-05-04 02:19 | 37.50229 | -82.14819 | 39052 ft | 511 kts | 68° |
| 2026-05-04 02:19 | 37.52568 | -82.06350 | 39043 ft | 512 kts | 69° |
| 2026-05-04 02:20 | 37.54904 | -81.97866 | 39054 ft | 511 kts | 68° |
| 2026-05-04 02:20 | 37.57233 | -81.89400 | 39053 ft | 512 kts | 69° |
| 2026-05-04 02:21 | 37.59554 | -81.80913 | 39053 ft | 512 kts | 69° |
| 2026-05-04 02:21 | 37.61866 | -81.72416 | 39054 ft | 512 kts | 69° |
| 2026-05-04 02:22 | 37.64175 | -81.63914 | 39065 ft | 512 kts | 69° |
| 2026-05-04 02:22 | 37.66481 | -81.55401 | 39043 ft | 513 kts | 69° |
| 2026-05-04 02:23 | 37.68775 | -81.46894 | 39074 ft | 512 kts | 69° |
| 2026-05-04 02:23 | 37.71067 | -81.38371 | 39075 ft | 513 kts | 69° |
| 2026-05-04 02:24 | 37.73355 | -81.29836 | 39090 ft | 513 kts | 69° |
| 2026-05-04 02:24 | 37.75640 | -81.21284 | 39091 ft | 514 kts | 69° |
| 2026-05-04 02:25 | 37.77874 | -81.12708 | 39088 ft | 515 kts | 75° |
| 2026-05-04 02:25 | 37.78762 | -81.03734 | 39128 ft | 516 kts | 86° |